Beijing, China
Current Conditions -  °F | °C
As of 1:30 AM on Friday 19 Dec 2014 (Local Time) from ZBAA Reporting Station
Haze Haze  
Wind Chill: 15°   Ceiling: Unl
Heat Index: 21°   Visibility: 2.5mi
Dew Point: 16°   Wind: 4mph
Humidity: 80%   Direction: 360°N
Pressure: 30.21"   Gusts: NA
Location:  39.93°N, 116.4°E
Report Text: ZBAA 181730Z 36002MPS 4000 BR NSC M06/M09 Q1023 NOSIG
Loading
Personal Weather Stations






























Interactive Weather Map New forecast layout! Learn more

10-Day Weather Forecast

Advertisements
Track Severe Weather on mobile